Time;durP1;ratioP1;P1;durP2;ratioP2;P2;SDS_P1;SDS_P2;PMS_P1;PMS_P2;Temp;Humidity;BMP_temperature;BMP_pressure;BME280_temperature;BME280_humidity;BME280_pressure;Samples;Min_cycle;Max_cycle;Signal;HPM_P1;HPM_P2
2023/05/05 00:00:19;;;;;;;7.40;5.90;;;;;;;12.88;57.57;101192.31;4901531;29;20047;-78
2023/05/05 00:02:45;;;;;;;8.05;5.72;;;;;;;12.87;57.71;101206.06;4902638;29;20036;-77
2023/05/05 00:05:10;;;;;;;9.48;6.85;;;;;;;12.88;58.18;101196.91;4910565;29;20044;-78
2023/05/05 00:07:35;;;;;;;9.95;6.95;;;;;;;12.88;57.95;101188.81;4921950;29;20054;-80
2023/05/05 00:10:01;;;;;;;7.43;5.93;;;;;;;12.92;57.53;101197.31;4922556;29;20385;-80
2023/05/05 00:12:26;;;;;;;6.93;6.22;;;;;;;12.99;57.62;101199.00;4922711;29;20048;-77
2023/05/05 00:14:52;;;;;;;9.25;6.50;;;;;;;13.01;57.54;101196.13;4902421;29;20040;-80
2023/05/05 00:17:17;;;;;;;10.40;7.78;;;;;;;13.02;57.29;101195.06;4916902;29;20039;-79
2023/05/05 00:19:43;;;;;;;9.32;6.80;;;;;;;13.02;57.55;101185.09;4913580;29;20044;-78
2023/05/05 00:22:11;;;;;;;8.70;7.05;;;;;;;13.02;58.00;101178.88;4918142;29;20047;-78
2023/05/05 00:24:36;;;;;;;8.60;7.10;;;;;;;13.00;58.23;101178.22;4915963;29;20059;-79
2023/05/05 00:27:02;;;;;;;10.80;7.22;;;;;;;13.05;57.50;101186.56;4912363;29;20040;-78
2023/05/05 00:29:28;;;;;;;10.27;8.05;;;;;;;13.13;57.80;101196.34;4910772;29;20190;-78
2023/05/05 00:31:53;;;;;;;10.05;6.95;;;;;;;13.13;57.29;101183.66;4911267;29;20064;-78
2023/05/05 00:34:18;;;;;;;8.63;7.72;;;;;;;13.14;57.73;101189.91;4914820;29;20051;-78
2023/05/05 00:36:48;;;;;;;9.27;6.68;;;;;;;13.17;57.46;101186.75;4916021;29;20496;-78
2023/05/05 00:39:13;;;;;;;10.30;7.57;;;;;;;13.22;57.71;101188.88;4917102;29;20387;-80
2023/05/05 00:41:39;;;;;;;14.07;7.95;;;;;;;13.22;58.01;101192.41;4888985;29;20060;-79
2023/05/05 00:44:05;;;;;;;12.52;8.45;;;;;;;13.28;57.69;101183.47;4912318;29;20062;-79
2023/05/05 00:46:30;;;;;;;14.25;7.93;;;;;;;13.33;58.31;101175.53;4910597;29;20039;-79
2023/05/05 00:48:55;;;;;;;14.77;8.88;;;;;;;13.43;57.57;101185.97;4900799;29;20049;-79
2023/05/05 00:51:21;;;;;;;15.88;9.02;;;;;;;13.64;56.26;101184.13;4895468;29;20039;-78
2023/05/05 00:53:47;;;;;;;15.52;8.90;;;;;;;13.84;55.74;101176.00;4894037;29;20555;-78
2023/05/05 00:56:13;;;;;;;15.57;9.25;;;;;;;13.85;55.70;101174.94;4913918;29;20091;-78
2023/05/05 00:58:41;;;;;;;15.82;9.68;;;;;;;13.83;56.12;101168.06;4920101;29;20044;-79
2023/05/05 01:01:07;;;;;;;13.07;9.23;;;;;;;13.89;56.43;101178.88;4905451;29;20111;-78
2023/05/05 01:03:32;;;;;;;15.70;9.10;;;;;;;14.03;56.04;101174.28;4903730;29;20052;-78
2023/05/05 01:06:02;;;;;;;14.50;8.45;;;;;;;14.01;56.21;101170.94;4900729;29;20123;-78
2023/05/05 01:08:45;;;;;;;13.27;8.68;;;;;;;13.98;56.45;101176.78;4884715;29;20048;-79
2023/05/05 01:11:26;;;;;;;13.23;9.07;;;;;;;13.99;57.52;101181.16;4920854;29;20075;-78
2023/05/05 01:14:24;;;;;;;13.00;8.27;;;;;;;13.97;57.12;101172.41;4899716;29;20040;-78
2023/05/05 01:16:57;;;;;;;13.18;8.18;;;;;;;13.90;57.11;101169.72;4896924;29;20504;-79
2023/05/05 01:19:46;;;;;;;11.90;7.57;;;;;;;13.89;57.12;101172.66;4919209;29;20039;-79
2023/05/05 01:22:12;;;;;;;12.02;7.85;;;;;;;13.94;57.15;101176.38;4922349;29;20107;-78
2023/05/05 01:25:13;;;;;;;12.57;7.82;;;;;;;14.19;56.49;101174.84;4912775;29;20109;-78
2023/05/05 01:27:58;;;;;;;11.93;7.57;;;;;;;14.44;56.01;101179.56;4913839;29;20055;-78
2023/05/05 01:30:39;;;;;;;9.18;7.32;;;;;;;14.44;55.94;101174.97;4900017;29;20123;-79
2023/05/05 01:33:07;;;;;;;10.07;7.45;;;;;;;14.54;55.67;101169.09;4901823;29;20048;-79
2023/05/05 01:35:36;;;;;;;10.50;7.75;;;;;;;14.58;56.02;101175.75;4896222;29;20579;-75
2023/05/05 01:38:07;;;;;;;10.73;7.70;;;;;;;14.66;56.17;101183.59;4901577;29;20043;-75
2023/05/05 01:40:42;;;;;;;10.00;8.10;;;;;;;14.70;56.05;101173.22;4926279;29;20044;-76
2023/05/05 01:43:07;;;;;;;11.60;7.68;;;;;;;14.79;55.84;101168.38;4899752;29;20063;-76
2023/05/05 01:45:37;;;;;;;8.45;7.15;;;;;;;14.75;56.32;101169.84;4917711;29;20071;-75
2023/05/05 01:48:03;;;;;;;12.90;8.40;;;;;;;14.69;56.43;101161.53;4888509;29;20039;-76
2023/05/05 01:50:32;;;;;;;10.95;8.02;;;;;;;14.70;56.62;101160.50;4894011;29;20043;-76
2023/05/05 01:52:57;;;;;;;8.80;7.90;;;;;;;14.77;56.39;101174.00;4916303;29;20123;-75
2023/05/05 01:55:24;;;;;;;8.90;8.00;;;;;;;14.82;56.59;101166.06;4894558;29;20487;-75
2023/05/05 01:57:52;;;;;;;9.48;8.13;;;;;;;14.94;56.07;101176.19;4896015;29;20048;-75
2023/05/05 02:00:20;;;;;;;13.15;8.50;;;;;;;15.03;56.08;101188.47;4910539;29;20431;-76
2023/05/05 02:02:46;;;;;;;10.82;8.30;;;;;;;15.02;56.15;101186.78;4894375;29;20047;-77
2023/05/05 02:05:12;;;;;;;12.50;8.40;;;;;;;15.03;56.16;101191.16;4917983;29;20080;-77
2023/05/05 02:07:37;;;;;;;11.35;8.65;;;;;;;15.08;56.15;101185.09;4896104;29;20036;-77
2023/05/05 02:10:03;;;;;;;9.88;7.88;;;;;;;15.11;55.84;101201.72;4890581;29;20480;-77
2023/05/05 02:12:29;;;;;;;9.82;8.63;;;;;;;15.11;56.24;101207.16;4892033;29;20052;-77
2023/05/05 02:14:56;;;;;;;12.18;8.70;;;;;;;15.09;56.38;101214.69;4891763;29;20559;-76
2023/05/05 02:17:22;;;;;;;11.35;8.70;;;;;;;15.12;56.38;101208.00;4885358;29;20056;-77
2023/05/05 02:19:48;;;;;;;11.05;8.70;;;;;;;15.03;56.61;101207.44;4882098;29;20035;-76
2023/05/05 02:22:16;;;;;;;11.90;9.35;;;;;;;14.91;57.16;101204.56;4892114;29;20369;-76
2023/05/05 02:24:42;;;;;;;12.63;9.48;;;;;;;14.79;57.74;101204.44;4882542;29;20127;-76
2023/05/05 02:27:07;;;;;;;12.68;9.35;;;;;;;14.73;58.07;101220.72;4893679;29;20477;-76
2023/05/05 02:29:40;;;;;;;13.57;9.65;;;;;;;14.68;58.47;101219.47;4881604;29;20047;-77
2023/05/05 02:32:13;;;;;;;12.77;9.63;;;;;;;14.56;58.88;101227.41;4892419;29;20079;-76
2023/05/05 02:34:41;;;;;;;11.35;10.13;;;;;;;14.47;59.15;101219.78;4922432;29;20056;-76
2023/05/05 02:37:08;;;;;;;12.98;9.77;;;;;;;14.42;59.10;101217.69;4892946;29;20055;-77
2023/05/05 02:39:43;;;;;;;15.48;10.68;;;;;;;14.45;59.44;101219.16;4899355;29;20040;-77
2023/05/05 02:42:08;;;;;;;14.75;11.00;;;;;;;14.48;59.60;101226.81;4919345;29;20134;-76
2023/05/05 02:44:35;;;;;;;17.38;11.35;;;;;;;14.49;59.73;101212.25;4875006;29;20056;-77
2023/05/05 02:47:03;;;;;;;14.90;11.32;;;;;;;14.42;59.83;101219.56;4888000;29;20036;-77
2023/05/05 02:49:28;;;;;;;16.10;12.18;;;;;;;14.37;60.31;101214.81;4922400;29;20476;-75
2023/05/05 02:51:54;;;;;;;15.80;11.80;;;;;;;14.29;60.75;101215.88;4898475;29;20040;-76
2023/05/05 02:54:19;;;;;;;16.17;11.73;;;;;;;14.19;61.07;101215.47;4898923;29;20090;-76
2023/05/05 02:56:50;;;;;;;14.45;10.52;;;;;;;14.13;61.30;101217.16;4913156;29;20364;-76
2023/05/05 03:00:15;;;;;;;19.08;12.48;;;;;;;14.00;62.54;101223.41;4916003;29;20043;-76
2023/05/05 03:02:54;;;;;;;17.48;12.80;;;;;;;13.86;63.41;101221.78;4842180;29;20557;-76
2023/05/05 03:05:22;;;;;;;15.25;11.18;;;;;;;13.82;62.99;101218.66;4823289;29;20050;-77
2023/05/05 03:07:55;;;;;;;16.58;13.60;;;;;;;13.81;63.97;101225.13;4892861;29;20495;-77
2023/05/05 03:10:22;;;;;;;18.95;11.98;;;;;;;13.72;63.66;101227.19;4895640;29;20126;-75
2023/05/05 03:12:51;;;;;;;14.93;12.23;;;;;;;13.62;64.14;101221.34;4918831;29;20047;-77
2023/05/05 03:15:17;;;;;;;15.80;12.38;;;;;;;13.53;64.55;101217.22;4914703;29;20042;-77
2023/05/05 03:17:46;;;;;;;19.45;12.00;;;;;;;13.48;64.93;101221.38;4891328;29;20079;-77
2023/05/05 03:20:17;;;;;;;18.63;12.82;;;;;;;13.43;65.46;101226.56;4906747;29;20054;-77
2023/05/05 03:22:43;;;;;;;21.00;13.50;;;;;;;13.44;65.56;101225.50;4900804;29;20044;-77
2023/05/05 03:25:08;;;;;;;17.23;12.52;;;;;;;13.34;65.65;101217.78;4889540;29;20102;-78
2023/05/05 03:27:34;;;;;;;18.27;12.82;;;;;;;13.27;66.16;101218.81;4885703;29;20452;-76
2023/05/05 03:29:59;;;;;;;16.90;12.30;;;;;;;13.20;66.09;101213.41;4921494;29;20036;-77
2023/05/05 03:32:24;;;;;;;16.65;12.30;;;;;;;13.15;66.38;101203.22;4911265;29;20456;-77
2023/05/05 03:34:50;;;;;;;17.10;12.77;;;;;;;13.12;67.10;101211.72;4899190;29;20068;-78
2023/05/05 03:37:15;;;;;;;16.27;13.23;;;;;;;13.04;68.03;101214.63;4912962;29;20050;-77
2023/05/05 03:39:43;;;;;;;16.05;11.85;;;;;;;13.00;67.85;101213.38;4914656;29;20098;-77
2023/05/05 03:42:08;;;;;;;17.55;12.95;;;;;;;12.89;67.78;101212.91;4914739;29;20051;-77
2023/05/05 03:44:34;;;;;;;16.35;12.15;;;;;;;12.83;68.20;101216.44;4915862;29;20047;-77
2023/05/05 03:46:59;;;;;;;16.08;11.60;;;;;;;12.76;68.35;101212.88;4906479;29;20044;-76
2023/05/05 03:49:25;;;;;;;16.38;13.18;;;;;;;12.94;68.64;101225.81;4909099;29;20059;-77
2023/05/05 03:51:50;;;;;;;17.15;13.27;;;;;;;13.10;68.17;101229.19;4894658;29;20043;-77
2023/05/05 03:54:15;;;;;;;15.75;12.93;;;;;;;13.08;68.80;101236.66;4898130;29;20515;-77
2023/05/05 03:56:41;;;;;;;19.45;13.60;;;;;;;13.03;68.23;101240.00;4913237;29;20035;-76
2023/05/05 03:59:07;;;;;;;17.55;13.38;;;;;;;13.03;68.38;101257.03;4912268;29;20506;-77
2023/05/05 04:01:34;;;;;;;17.38;12.93;;;;;;;13.10;68.48;101254.34;4912628;29;20153;-77
2023/05/05 04:03:59;;;;;;;18.38;13.00;;;;;;;13.23;67.86;101271.66;4914357;29;20049;-77
2023/05/05 04:06:25;;;;;;;19.15;14.50;;;;;;;13.27;67.55;101272.88;4921208;29;20048;-77
2023/05/05 04:08:50;;;;;;;17.92;13.40;;;;;;;13.20;67.54;101272.88;4919204;29;20042;-76
2023/05/05 04:11:16;;;;;;;18.60;13.77;;;;;;;13.24;67.61;101267.91;4872498;29;20409;-76
2023/05/05 04:13:41;;;;;;;20.15;13.73;;;;;;;13.25;67.66;101275.81;4913493;29;20067;-76
2023/05/05 04:16:08;;;;;;;20.20;14.18;;;;;;;13.29;67.62;101274.38;4913980;29;20128;-77
2023/05/05 04:18:33;;;;;;;18.63;13.80;;;;;;;13.28;67.58;101274.53;4888192;29;20159;-76
2023/05/05 04:20:59;;;;;;;18.08;13.27;;;;;;;13.25;67.84;101281.22;4906488;29;20072;-76
2023/05/05 04:23:24;;;;;;;20.05;13.27;;;;;;;13.18;67.71;101275.78;4913936;29;20107;-77
2023/05/05 04:25:49;;;;;;;22.13;14.02;;;;;;;13.09;68.67;101287.81;4907746;29;20527;-76
2023/05/05 04:28:15;;;;;;;18.95;14.65;;;;;;;13.09;68.71;101282.41;4909332;29;20153;-77
2023/05/05 04:30:40;;;;;;;17.35;13.38;;;;;;;13.09;68.82;101285.09;4913296;29;20527;-76
2023/05/05 04:33:06;;;;;;;18.75;13.43;;;;;;;13.13;68.85;101283.66;4914527;29;20044;-76
2023/05/05 04:35:31;;;;;;;18.70;14.40;;;;;;;13.27;68.20;101295.38;4924535;29;20055;-76
2023/05/05 04:38:00;;;;;;;17.08;13.95;;;;;;;13.43;68.26;101288.75;4908988;29;20107;-77
2023/05/05 04:40:25;;;;;;;16.50;13.68;;;;;;;13.56;67.74;101296.06;4908651;29;20056;-76
2023/05/05 04:42:51;;;;;;;17.67;13.35;;;;;;;13.58;67.64;101312.94;4916202;29;20050;-77
2023/05/05 04:45:16;;;;;;;17.23;13.45;;;;;;;13.62;67.78;101318.75;4924242;29;20035;-75
2023/05/05 04:47:41;;;;;;;20.00;14.65;;;;;;;13.67;67.72;101327.09;4929159;29;20039;-76
2023/05/05 04:50:07;;;;;;;23.50;16.73;;;;;;;13.67;67.77;101316.25;4929838;29;20039;-76
2023/05/05 04:52:33;;;;;;;20.13;15.43;;;;;;;13.68;67.61;101325.22;4917535;29;20056;-76
2023/05/05 04:54:58;;;;;;;17.85;13.85;;;;;;;13.87;67.67;101323.56;4921274;29;20063;-75
2023/05/05 04:57:24;;;;;;;21.50;15.93;;;;;;;14.09;66.55;101319.63;4921733;29;20404;-76
2023/05/05 04:59:49;;;;;;;22.38;16.20;;;;;;;14.33;66.08;101325.41;4917108;29;20048;-75
2023/05/05 05:02:15;;;;;;;19.40;16.30;;;;;;;14.70;64.99;101322.25;4923998;29;20114;-75
2023/05/05 05:04:43;;;;;;;20.67;15.38;;;;;;;14.95;64.25;101333.22;4903650;29;20040;-77
2023/05/05 05:07:08;;;;;;;24.05;15.88;;;;;;;15.02;64.10;101333.19;4877315;29;20400;-77
2023/05/05 05:09:34;;;;;;;18.08;14.85;;;;;;;14.89;64.59;101330.53;4897202;29;20048;-77
2023/05/05 05:12:02;;;;;;;17.70;14.38;;;;;;;15.37;63.38;101340.13;4870300;29;20948;-81
2023/05/05 05:20:24;;;;;;;20.92;14.73;;;;;;;16.37;59.96;101341.31;5200638;23;20056;-80
2023/05/05 05:23:04;;;;;;;18.80;15.35;;;;;;;16.09;60.73;101350.72;4905046;29;20052;-79
2023/05/05 06:12:44;;;;;;;14.50;9.27;;;;;;;18.44;55.14;101383.13;5173306;24;20447;-81
2023/05/05 06:20:22;;;;;;;12.48;9.77;;;;;;;20.01;51.37;101388.78;5094970;24;20061;-79
2023/05/05 06:22:47;;;;;;;14.10;8.93;;;;;;;21.32;48.03;101376.69;4806361;29;20129;-79
2023/05/05 06:25:18;;;;;;;11.98;9.25;;;;;;;21.82;46.77;101377.50;4801870;29;20120;-80
2023/05/05 06:34:33;;;;;;;13.13;9.57;;;;;;;20.58;49.20;101376.00;4819129;24;20106;-80
2023/05/05 06:52:35;;;;;;;12.90;9.23;;;;;;;22.64;44.32;101393.78;5531706;24;20063;-81
2023/05/05 06:58:12;;;;;;;10.13;8.32;;;;;;;24.12;41.04;101415.69;5163925;24;20109;-81
2023/05/05 07:00:38;;;;;;;10.75;8.13;;;;;;;23.35;43.09;101408.13;4773028;29;20054;-82
2023/05/05 07:03:09;;;;;;;14.55;8.00;;;;;;;23.46;42.20;101411.72;4789679;29;20134;-79
2023/05/05 07:05:46;;;;;;;9.45;7.60;;;;;;;23.04;43.22;101416.22;4805604;29;20598;-78
2023/05/05 07:08:11;;;;;;;10.40;8.27;;;;;;;23.67;41.70;101423.59;4819581;29;20042;-79
2023/05/05 07:10:37;;;;;;;9.50;8.32;;;;;;;24.04;40.83;101421.75;4800077;29;20865;-78
2023/05/05 07:13:17;;;;;;;10.65;7.97;;;;;;;23.79;42.05;101428.84;4798006;29;20049;-80
2023/05/05 07:15:45;;;;;;;10.43;7.57;;;;;;;24.53;39.69;101432.19;4806449;29;20049;-78
2023/05/05 07:18:13;;;;;;;7.70;6.90;;;;;;;24.19;40.60;101420.91;4780296;29;20475;-79
2023/05/05 07:24:17;;;;;;;8.43;5.78;;;;;;;26.15;36.90;101417.41;5200850;24;20133;-79
2023/05/05 07:27:15;;;;;;;9.65;6.70;;;;;;;25.16;38.49;101409.97;4818654;29;20159;-78
2023/05/05 07:30:17;;;;;;;6.13;5.40;;;;;;;24.84;38.36;101412.06;4740963;29;20062;-78
2023/05/05 07:32:42;;;;;;;10.52;6.07;;;;;;;25.61;37.21;101421.06;4739922;29;20079;-79
2023/05/05 07:35:19;;;;;;;8.32;6.03;;;;;;;26.60;35.26;101419.19;4717909;30;20153;-79
2023/05/05 07:38:28;;;;;;;7.65;5.68;;;;;;;27.36;33.95;101424.13;4747049;30;20070;-81
2023/05/05 07:41:12;;;;;;;6.78;5.30;;;;;;;26.67;34.88;101430.72;4764822;29;20094;-80
2023/05/05 07:47:08;;;;;;;9.00;4.68;;;;;;;28.11;31.90;101432.72;4807347;29;20121;-80
2023/05/05 07:59:47;;;;;;;6.25;4.35;;;;;;;26.39;35.11;101438.72;4830813;29;20061;-79
2023/05/05 08:12:30;;;;;;;7.22;4.95;;;;;;;27.77;33.00;101456.78;4819771;29;20450;-78
2023/05/05 08:14:59;;;;;;;7.03;4.82;;;;;;;28.42;31.53;101459.88;4788384;29;20134;-78
2023/05/05 08:17:27;;;;;;;7.05;5.35;;;;;;;27.58;33.09;101459.50;4814608;29;20107;-78
2023/05/05 08:19:53;;;;;;;6.07;5.03;;;;;;;27.29;33.97;101460.44;4824724;29;20048;-78
2023/05/05 08:22:19;;;;;;;6.32;4.57;;;;;;;28.37;32.71;101457.22;4815796;29;20050;-78
2023/05/05 08:24:48;;;;;;;6.93;4.85;;;;;;;27.79;32.63;101460.06;4778363;29;20050;-78
2023/05/05 08:27:13;;;;;;;5.60;4.65;;;;;;;27.87;32.07;101453.03;4824307;29;20060;-78
2023/05/05 08:29:39;;;;;;;8.13;4.63;;;;;;;28.87;31.17;101460.19;4827575;29;20042;-78
2023/05/05 08:32:04;;;;;;;8.75;4.60;;;;;;;30.25;28.86;101464.97;4814883;29;20050;-79
2023/05/05 08:34:30;;;;;;;4.80;4.28;;;;;;;28.43;30.93;101458.75;4820563;29;20107;-78
2023/05/05 08:36:55;;;;;;;5.78;4.45;;;;;;;27.47;32.76;101450.53;4797699;29;20044;-78
2023/05/05 08:39:21;;;;;;;7.45;4.68;;;;;;;27.15;33.17;101459.50;4811060;29;20054;-79
2023/05/05 08:41:49;;;;;;;4.63;3.78;;;;;;;29.76;29.60;101457.22;4798729;29;20044;-78
2023/05/05 08:44:15;;;;;;;5.22;3.95;;;;;;;30.93;27.51;101452.91;4789805;29;20046;-77
2023/05/05 08:46:40;;;;;;;7.18;3.80;;;;;;;29.14;30.22;101453.00;4817590;29;20068;-78
2023/05/05 08:49:13;;;;;;;7.50;4.43;;;;;;;27.78;32.28;101454.81;4798038;29;20038;-80
2023/05/05 08:51:41;;;;;;;5.30;3.92;;;;;;;27.46;32.09;101437.81;4818884;29;20548;-78
2023/05/05 08:54:08;;;;;;;5.88;4.00;;;;;;;29.36;30.06;101436.78;4799287;29;20433;-81
2023/05/05 08:56:38;;;;;;;5.15;4.00;;;;;;;30.62;27.50;101446.25;4823055;29;20173;-77
2023/05/05 08:59:03;;;;;;;4.65;3.28;;;;;;;31.45;26.43;101446.66;4804747;29;20106;-77
2023/05/05 09:01:29;;;;;;;5.45;3.75;;;;;;;30.32;28.29;101445.91;4807421;29;20497;-77
2023/05/05 09:03:54;;;;;;;5.72;4.20;;;;;;;29.71;29.01;101449.03;4790707;29;20444;-76
2023/05/05 09:06:25;;;;;;;4.22;3.35;;;;;;;30.22;29.09;101455.31;4787496;29;20046;-76
2023/05/05 09:08:53;;;;;;;5.03;4.22;;;;;;;30.65;27.69;101453.13;4775191;29;20623;-76
2023/05/05 09:11:20;;;;;;;5.80;4.00;;;;;;;31.53;26.93;101457.00;4793294;29;20080;-78
2023/05/05 09:13:46;;;;;;;6.53;4.50;;;;;;;30.77;27.68;101455.28;4804520;29;20106;-79
2023/05/05 09:16:11;;;;;;;6.32;4.28;;;;;;;30.08;28.46;101449.03;4768788;29;20047;-80
2023/05/05 09:18:37;;;;;;;8.50;3.70;;;;;;;29.55;29.07;101447.72;4805251;29;20145;-78
2023/05/05 09:21:21;;;;;;;5.18;4.05;;;;;;;28.85;30.13;101450.56;4781372;29;20511;-77
2023/05/05 09:24:06;;;;;;;7.57;3.97;;;;;;;29.37;29.94;101453.13;4793827;29;20064;-75
2023/05/05 09:26:33;;;;;;;6.15;3.53;;;;;;;29.47;29.63;101452.91;4829875;29;20141;-76
2023/05/05 09:29:01;;;;;;;5.50;3.42;;;;;;;29.85;29.14;101453.69;4793740;29;20080;-75
2023/05/05 09:31:26;;;;;;;4.78;2.60;;;;;;;30.48;27.66;101453.84;4816976;29;20706;-76
2023/05/05 09:33:55;;;;;;;3.63;3.30;;;;;;;29.04;29.89;101459.56;4815657;29;20073;-76
2023/05/05 09:36:39;;;;;;;6.88;3.42;;;;;;;30.44;27.24;101463.94;4813466;29;20043;-76
2023/05/05 09:39:10;;;;;;;6.80;3.40;;;;;;;31.07;26.83;101453.63;4812201;29;20057;-76
2023/05/05 09:41:37;;;;;;;4.10;3.22;;;;;;;29.94;28.17;101465.69;4825280;29;20072;-76
2023/05/05 09:44:05;;;;;;;5.13;3.03;;;;;;;29.86;28.36;101463.66;4813597;29;20045;-76
2023/05/05 09:46:34;;;;;;;4.65;2.20;;;;;;;30.61;26.46;101458.50;4832867;29;20046;-76
2023/05/05 09:49:12;;;;;;;2.88;2.28;;;;;;;28.49;28.74;101459.53;4823058;29;20115;-75
2023/05/05 09:51:37;;;;;;;3.08;2.58;;;;;;;29.23;28.31;101452.28;4811314;29;20414;-76
2023/05/05 09:54:08;;;;;;;3.72;2.75;;;;;;;28.34;29.79;101449.53;4823747;29;20055;-76
2023/05/05 10:07:40;;;;;;;3.95;3.20;;;;;;;27.21;32.45;101434.28;5061087;24;20367;-76
2023/05/05 10:10:15;;;;;;;3.80;2.75;;;;;;;27.99;31.11;101438.69;4810346;29;20488;-76
2023/05/05 10:12:41;;;;;;;5.32;3.10;;;;;;;26.99;31.93;101437.59;4807708;29;20924;-76
2023/05/05 10:15:18;;;;;;;5.55;3.42;;;;;;;27.10;32.11;101427.22;4795940;29;20042;-77
2023/05/05 10:18:18;;;;;;;3.40;2.00;;;;;;;27.79;30.39;101437.09;4785364;29;20447;-77
2023/05/05 10:20:43;;;;;;;2.75;1.50;;;;;;;28.85;28.87;101436.72;4798498;29;20038;-77
2023/05/05 10:23:09;;;;;;;3.60;1.40;;;;;;;28.70;28.83;101432.25;4788957;29;20499;-77
2023/05/05 10:25:52;;;;;;;3.13;1.60;;;;;;;27.87;30.20;101432.81;4815550;29;20133;-76
2023/05/05 10:28:22;;;;;;;4.93;1.70;;;;;;;27.39;30.96;101426.28;4813078;29;20400;-77
2023/05/05 10:31:00;;;;;;;4.40;1.70;;;;;;;26.93;31.73;101422.19;4803727;29;20050;-78
2023/05/05 10:33:30;;;;;;;5.80;1.73;;;;;;;24.29;35.94;101429.19;4798572;29;20046;-77
2023/05/05 10:35:56;;;;;;;4.35;1.50;;;;;;;25.10;35.14;101429.31;4799731;29;20051;-78
2023/05/05 10:38:23;;;;;;;2.75;1.40;;;;;;;25.39;34.96;101427.81;4797214;29;20410;-76
2023/05/05 10:40:51;;;;;;;2.40;1.60;;;;;;;24.63;35.69;101417.56;4786850;29;20057;-77
2023/05/05 10:43:17;;;;;;;3.00;1.75;;;;;;;25.12;35.06;101420.75;4801359;29;20570;-76
2023/05/05 10:45:42;;;;;;;2.70;1.40;;;;;;;23.65;37.90;101414.78;4809446;29;20042;-76
2023/05/05 10:48:19;;;;;;;3.28;1.40;;;;;;;22.75;38.92;101419.38;4799137;29;20481;-77
2023/05/05 10:50:48;;;;;;;3.20;1.55;;;;;;;22.54;40.06;101405.53;4783255;29;20476;-75
2023/05/05 10:53:31;;;;;;;3.42;1.77;;;;;;;22.62;40.46;101406.09;4810505;29;20353;-79
2023/05/05 10:56:09;;;;;;;3.63;2.10;;;;;;;23.34;38.95;101400.16;4784296;29;20107;-77
2023/05/05 10:58:35;;;;;;;4.00;2.20;;;;;;;23.41;38.97;101401.56;4816294;29;20057;-76
2023/05/05 11:01:01;;;;;;;2.53;2.10;;;;;;;23.84;38.43;101403.25;4789006;29;20046;-76
2023/05/05 11:03:27;;;;;;;5.28;2.67;;;;;;;23.92;38.53;101400.78;4746615;29;20596;-76
2023/05/05 11:06:07;;;;;;;5.28;3.38;;;;;;;23.63;39.34;101400.50;4783993;29;20055;-77
2023/05/05 11:08:34;;;;;;;5.63;3.50;;;;;;;23.51;39.96;101395.25;4795863;29;20046;-78
2023/05/05 11:11:00;;;;;;;5.07;3.42;;;;;;;23.57;40.05;101393.34;4791065;29;20042;-77
2023/05/05 11:13:28;;;;;;;4.68;3.45;;;;;;;23.29;40.32;101390.00;4786493;29;20416;-76
2023/05/05 11:15:57;;;;;;;8.43;3.70;;;;;;;22.07;42.96;101379.63;4812420;29;20042;-76
2023/05/05 11:18:38;;;;;;;4.45;3.40;;;;;;;22.43;42.76;101376.34;4818029;29;20058;-76
2023/05/05 11:21:07;;;;;;;7.13;3.72;;;;;;;22.77;41.45;101378.72;4805775;29;20491;-75
2023/05/05 11:23:33;;;;;;;6.70;3.70;;;;;;;23.02;41.35;101371.72;4773642;29;20050;-78
2023/05/05 11:25:58;;;;;;;6.00;3.70;;;;;;;23.04;40.72;101366.78;4816274;29;20130;-75
2023/05/05 11:28:28;;;;;;;7.13;3.50;;;;;;;23.18;40.38;101364.38;4799952;29;20049;-76
2023/05/05 11:30:53;;;;;;;4.53;3.10;;;;;;;22.96;40.39;101361.78;4792306;29;20046;-76
2023/05/05 11:33:28;;;;;;;3.90;2.90;;;;;;;22.54;41.21;101361.63;4792161;29;20499;-76
2023/05/05 11:36:00;;;;;;;5.37;2.80;;;;;;;22.79;40.59;101345.53;4814170;29;20042;-77
2023/05/05 11:38:39;;;;;;;5.60;2.90;;;;;;;23.20;40.01;101355.84;4809017;29;20044;-74
2023/05/05 11:41:14;;;;;;;5.53;2.88;;;;;;;23.62;39.16;101354.88;4816095;29;20049;-75
2023/05/05 11:43:40;;;;;;;5.40;3.03;;;;;;;24.08;38.13;101348.59;4798650;29;20050;-75
2023/05/05 11:46:11;;;;;;;5.07;2.83;;;;;;;24.19;37.72;101350.22;4789603;29;20608;-76
2023/05/05 11:48:46;;;;;;;6.25;3.00;;;;;;;24.02;37.70;101341.44;4795518;29;20084;-76
2023/05/05 11:51:12;;;;;;;4.53;3.00;;;;;;;24.07;38.71;101342.25;4797161;29;20051;-76
2023/05/05 11:53:42;;;;;;;3.15;2.47;;;;;;;23.73;38.55;101336.47;4803211;29;20104;-75
2023/05/05 11:56:21;;;;;;;6.05;2.90;;;;;;;24.53;36.67;101343.28;4783203;29;20050;-76
2023/05/05 11:59:05;;;;;;;5.13;3.00;;;;;;;24.40;37.67;101338.34;4800402;29;20127;-75
2023/05/05 12:01:31;;;;;;;4.18;2.88;;;;;;;25.21;36.81;101341.91;4804613;29;20053;-76
2023/05/05 12:03:56;;;;;;;4.57;3.10;;;;;;;25.66;35.35;101341.09;4797211;29;20038;-76
2023/05/05 12:06:21;;;;;;;5.43;2.95;;;;;;;25.70;34.92;101345.75;4812840;29;20054;-76
2023/05/05 12:08:47;;;;;;;3.65;2.47;;;;;;;25.67;35.44;101339.97;4767388;29;20631;-76
2023/05/05 12:11:12;;;;;;;4.15;2.40;;;;;;;24.94;36.52;101348.66;4796251;29;20442;-77
2023/05/05 12:13:38;;;;;;;3.63;2.40;;;;;;;24.45;36.68;101341.09;4813373;29;20094;-77
2023/05/05 12:16:10;;;;;;;3.65;2.42;;;;;;;23.99;37.94;101337.34;4806913;29;20375;-78
2023/05/05 12:18:35;;;;;;;4.70;2.45;;;;;;;23.89;37.70;101345.53;4794536;29;20413;-78
2023/05/05 12:21:02;;;;;;;4.47;2.58;;;;;;;23.92;38.40;101353.25;4806661;29;20514;-77
2023/05/05 12:23:28;;;;;;;3.95;2.75;;;;;;;24.31;37.79;101351.84;4794055;29;20106;-78
2023/05/05 12:25:54;;;;;;;6.63;3.20;;;;;;;23.87;37.95;101353.22;4809118;29;20046;-78
2023/05/05 12:28:19;;;;;;;7.05;3.38;;;;;;;23.07;39.36;101355.28;4799091;29;20491;-78
2023/05/05 12:30:56;;;;;;;5.07;2.88;;;;;;;22.59;40.67;101365.50;4802246;29;20136;-77
2023/05/05 12:33:21;;;;;;;5.32;3.28;;;;;;;21.69;45.48;101375.19;4775406;29;20048;-78
2023/05/05 12:35:47;;;;;;;5.45;3.90;;;;;;;21.07;48.14;101399.94;4771298;29;20054;-78
2023/05/05 12:38:15;;;;;;;11.00;4.00;;;;;;;19.56;54.05;101452.41;4779510;29;20038;-77
2023/05/05 12:40:45;;;;;;;6.45;2.22;;;;;;;16.82;64.33;101476.16;4812145;29;20126;-79
2023/05/05 12:43:24;;;;;;;4.63;2.15;;;;;;;15.20;70.53;101481.66;4762882;29;20391;-75
2023/05/05 12:46:14;;;;;;;8.30;2.50;;;;;;;14.37;74.84;101493.78;4817981;29;20054;-78
2023/05/05 12:48:42;;;;;;;6.68;2.00;;;;;;;13.99;75.75;101505.97;4769023;29;20142;-78
2023/05/05 12:51:15;;;;;;;14.57;2.40;;;;;;;13.63;77.43;101510.66;4766146;29;20078;-78
2023/05/05 12:53:41;;;;;;;6.05;2.00;;;;;;;13.61;79.08;101501.03;4808578;29;20054;-78
2023/05/05 12:56:32;;;;;;;6.05;2.20;;;;;;;13.63;79.07;101498.97;4752166;29;20042;-78
2023/05/05 12:58:58;;;;;;;3.97;2.38;;;;;;;13.66;79.59;101489.63;4806538;29;20046;-79
2023/05/05 13:01:25;;;;;;;3.58;1.90;;;;;;;13.85;79.16;101499.69;4793323;29;20052;-79
2023/05/05 13:04:07;;;;;;;3.08;1.60;;;;;;;14.13;77.02;101504.16;4793533;29;20130;-80
2023/05/05 13:06:34;;;;;;;2.17;1.30;;;;;;;14.09;76.12;101494.75;4810677;29;20050;-78
2023/05/05 13:09:00;;;;;;;3.20;1.30;;;;;;;13.94;75.46;101492.25;4774029;29;20527;-77
2023/05/05 13:11:26;;;;;;;2.50;1.05;;;;;;;14.03;75.75;101482.88;4800052;29;20356;-76
2023/05/05 13:13:51;;;;;;;2.35;1.20;;;;;;;14.02;74.66;101481.22;4796232;29;20048;-76
2023/05/05 13:16:16;;;;;;;1.65;1.10;;;;;;;14.19;75.13;101475.41;4801134;29;20060;-78
2023/05/05 13:18:45;;;;;;;3.38;1.23;;;;;;;14.33;75.24;101470.84;4794359;29;20495;-76
2023/05/05 13:21:11;;;;;;;2.05;1.10;;;;;;;14.34;75.01;101461.69;4802802;29;20055;-79
2023/05/05 13:23:37;;;;;;;1.23;1.00;;;;;;;14.56;74.52;101465.03;4814162;29;20046;-77
2023/05/05 13:26:02;;;;;;;1.83;1.10;;;;;;;14.50;74.29;101471.25;4824380;29;20046;-76
2023/05/05 13:28:27;;;;;;;0.98;0.85;;;;;;;14.73;72.84;101468.19;4817006;29;20053;-76
2023/05/05 13:30:53;;;;;;;0.90;0.90;;;;;;;15.11;72.41;101467.47;4810563;29;20509;-76